Time;durP1;ratioP1;P1;durP2;ratioP2;P2;SDS_P1;SDS_P2;PMS_P1;PMS_P2;Temp;Humidity;BMP_temperature;BMP_pressure;BME280_temperature;BME280_humidity;BME280_pressure;Samples;Min_cycle;Max_cycle;Signal;HPM_P1;HPM_P2
2021/11/14 00:02:08;;;;;;;25.55;17.00;;;9.50;86.80;;;;;;5058951;28;20036;-67
2021/11/14 00:04:34;;;;;;;23.83;16.25;;;9.50;85.90;;;;;;5058435;28;20028;-66
2021/11/14 00:07:00;;;;;;;24.92;17.40;;;9.50;86.00;;;;;;5060047;28;20487;-66
2021/11/14 00:09:28;;;;;;;23.38;16.50;;;9.50;86.00;;;;;;5057861;28;20082;-66
2021/11/14 00:11:54;;;;;;;26.45;17.45;;;9.50;86.00;;;;;;5056275;28;20515;-67
2021/11/14 00:14:20;;;;;;;20.92;15.77;;;9.50;86.00;;;;;;5057642;28;20397;-67
2021/11/14 00:16:46;;;;;;;24.88;16.45;;;9.50;86.20;;;;;;5055747;28;20484;-67
2021/11/14 00:19:13;;;;;;;23.65;15.80;;;9.50;86.20;;;;;;5058484;28;20112;-66
2021/11/14 00:21:41;;;;;;;30.33;18.52;;;9.50;86.20;;;;;;5058062;28;20040;-66
2021/11/14 00:24:11;;;;;;;28.08;18.23;;;9.60;86.20;;;;;;5058191;28;20033;-67
2021/11/14 00:26:37;;;;;;;26.98;17.45;;;9.60;86.10;;;;;;5058300;28;20040;-67
2021/11/14 00:29:04;;;;;;;24.13;16.42;;;9.60;86.00;;;;;;5058093;28;20037;-67
2021/11/14 00:31:31;;;;;;;27.23;17.75;;;9.60;86.00;;;;;;5058448;28;20496;-67
2021/11/14 00:33:57;;;;;;;25.25;17.30;;;9.60;86.10;;;;;;5057174;28;20041;-67
2021/11/14 00:36:25;;;;;;;26.67;17.98;;;9.50;86.00;;;;;;5058745;28;20033;-66
2021/11/14 00:38:52;;;;;;;25.98;18.23;;;9.60;86.10;;;;;;5057521;28;20041;-66
2021/11/14 00:41:19;;;;;;;28.00;19.25;;;9.60;86.00;;;;;;5057191;28;20037;-66
2021/11/14 00:43:45;;;;;;;27.17;18.20;;;9.60;86.00;;;;;;5058641;28;20047;-66
2021/11/14 00:46:11;;;;;;;22.17;16.08;;;9.60;86.10;;;;;;5058887;28;20029;-66
2021/11/14 00:48:42;;;;;;;28.33;17.25;;;9.60;86.10;;;;;;5057206;28;20052;-67
2021/11/14 00:51:12;;;;;;;25.35;16.10;;;9.60;86.20;;;;;;5059102;28;20443;-67
2021/11/14 00:53:38;;;;;;;24.98;16.45;;;9.60;86.00;;;;;;5058969;28;20488;-66
2021/11/14 00:56:05;;;;;;;25.52;17.50;;;9.60;86.00;;;;;;5057992;28;20044;-66
2021/11/14 00:58:30;;;;;;;26.13;17.67;;;9.50;85.90;;;;;;5058998;28;20047;-67
2021/11/14 01:00:56;;;;;;;22.73;16.08;;;9.60;86.00;;;;;;5058547;28;20583;-67
2021/11/14 01:03:22;;;;;;;23.80;15.95;;;9.50;85.90;;;;;;5058690;28;20081;-67
2021/11/14 01:05:49;;;;;;;21.90;15.70;;;9.50;86.00;;;;;;5057566;28;20373;-66
2021/11/14 01:08:14;;;;;;;24.23;17.35;;;9.50;86.20;;;;;;5057068;28;20040;-66
2021/11/14 01:10:53;;;;;;;22.65;16.33;;;9.50;86.20;;;;;;5057107;28;20028;-67
2021/11/14 01:13:19;;;;;;;22.90;15.73;;;9.50;86.40;;;;;;5057685;28;20032;-67
2021/11/14 01:15:46;;;;;;;22.55;15.45;;;9.50;86.40;;;;;;5056166;28;20411;-67
2021/11/14 01:18:14;;;;;;;19.35;13.98;;;9.50;86.40;;;;;;5057175;28;20024;-67
2021/11/14 01:20:42;;;;;;;23.92;17.13;;;9.50;86.40;;;;;;5056848;28;20032;-66
2021/11/14 01:23:10;;;;;;;21.40;15.50;;;9.50;86.20;;;;;;5057631;28;20033;-67
2021/11/14 01:25:38;;;;;;;21.58;15.48;;;9.50;86.10;;;;;;5056179;28;20052;-66
2021/11/14 01:28:04;;;;;;;25.95;17.60;;;9.50;86.00;;;;;;5056451;28;20129;-67
2021/11/14 01:30:33;;;;;;;26.00;17.10;;;9.50;85.90;;;;;;5057188;28;20039;-67
2021/11/14 01:33:00;;;;;;;22.85;16.17;;;9.50;85.90;;;;;;5054481;28;20033;-66
2021/11/14 01:35:26;;;;;;;27.75;18.25;;;9.50;85.90;;;;;;5053287;28;20028;-65
2021/11/14 01:37:53;;;;;;;25.15;16.98;;;9.60;86.00;;;;;;5052234;28;20645;-66
2021/11/14 01:40:29;;;;;;;25.63;17.30;;;9.60;86.00;;;;;;5059504;28;20048;-66
2021/11/14 01:42:55;;;;;;;27.02;16.88;;;9.50;85.90;;;;;;5061407;28;20060;-66
2021/11/14 01:45:22;;;;;;;26.42;16.95;;;9.50;86.70;;;;;;5057545;28;20048;-66
2021/11/14 01:47:48;;;;;;;23.40;16.27;;;9.50;85.80;;;;;;5056478;28;20032;-66
2021/11/14 01:50:15;;;;;;;23.67;17.27;;;9.60;85.80;;;;;;5058970;28;20036;-67
2021/11/14 01:52:43;;;;;;;24.67;17.20;;;9.50;85.80;;;;;;5064879;28;20557;-67
2021/11/14 01:55:10;;;;;;;23.42;16.25;;;9.50;85.90;;;;;;5059940;28;20121;-66
2021/11/14 01:57:37;;;;;;;25.42;16.70;;;9.50;85.90;;;;;;5058335;28;20166;-67
2021/11/14 02:00:07;;;;;;;26.85;17.70;;;9.50;86.00;;;;;;5054215;28;20063;-64
2021/11/14 02:02:32;;;;;;;26.73;17.45;;;9.50;85.90;;;;;;5056851;28;20687;-66
2021/11/14 02:04:58;;;;;;;24.55;17.08;;;9.50;85.90;;;;;;5056816;28;20128;-66
2021/11/14 02:07:23;;;;;;;23.35;16.70;;;9.50;85.90;;;;;;5053900;28;20040;-66
2021/11/14 02:09:49;;;;;;;25.27;17.77;;;9.50;86.00;;;;;;5054729;28;20462;-67
2021/11/14 02:12:15;;;;;;;24.33;17.70;;;9.50;85.90;;;;;;5053879;28;20498;-65
2021/11/14 02:14:41;;;;;;;25.45;17.17;;;9.50;85.90;;;;;;5053743;28;20041;-66
2021/11/14 02:17:08;;;;;;;25.73;17.20;;;9.50;85.90;;;;;;5054976;28;21075;-67
2021/11/14 02:19:33;;;;;;;23.13;16.83;;;9.50;86.00;;;;;;5055958;28;20040;-66
2021/11/14 02:21:59;;;;;;;22.95;15.68;;;9.50;86.00;;;;;;5052274;28;20679;-65
2021/11/14 02:24:25;;;;;;;22.80;16.13;;;9.50;86.20;;;;;;5052179;28;20057;-67
2021/11/14 02:26:51;;;;;;;23.40;16.88;;;9.50;86.00;;;;;;5054879;28;20660;-66
2021/11/14 02:29:17;;;;;;;23.95;17.50;;;9.50;86.00;;;;;;5054283;28;20047;-66
2021/11/14 02:31:43;;;;;;;24.83;16.58;;;9.40;86.00;;;;;;5056413;28;20492;-67
2021/11/14 02:34:10;;;;;;;22.95;16.27;;;9.50;86.10;;;;;;5057165;28;20049;-66
2021/11/14 02:36:36;;;;;;;24.42;15.57;;;9.50;86.00;;;;;;5055383;28;20041;-66
2021/11/14 02:39:03;;;;;;;23.80;17.02;;;9.50;86.00;;;;;;5055837;28;20044;-67
2021/11/14 02:41:29;;;;;;;23.67;16.88;;;9.50;85.90;;;;;;5059108;28;20025;-66
2021/11/14 02:43:56;;;;;;;24.58;16.52;;;9.50;86.00;;;;;;5056683;28;20047;-67
2021/11/14 02:46:21;;;;;;;22.60;15.48;;;9.50;86.00;;;;;;5058033;28;20037;-66
2021/11/14 02:48:47;;;;;;;20.38;15.32;;;9.50;86.00;;;;;;5054908;28;20410;-66
2021/11/14 02:51:23;;;;;;;22.67;15.80;;;9.50;85.90;;;;;;5059508;28;20029;-67
2021/11/14 02:53:50;;;;;;;28.30;18.15;;;9.50;85.90;;;;;;5053230;28;20523;-67
2021/11/14 02:56:18;;;;;;;24.15;16.33;;;9.50;85.80;;;;;;5052699;28;20047;-64
2021/11/14 02:58:44;;;;;;;23.75;16.52;;;9.60;85.90;;;;;;5056042;28;20395;-66
2021/11/14 03:01:18;;;;;;;22.92;16.98;;;9.50;85.90;;;;;;5054848;28;20174;-66
2021/11/14 03:03:45;;;;;;;26.73;17.55;;;9.60;85.90;;;;;;5056500;28;20029;-67
2021/11/14 03:06:12;;;;;;;20.63;14.32;;;9.50;85.70;;;;;;5054359;28;21414;-66
2021/11/14 03:08:38;;;;;;;21.08;14.75;;;9.50;85.70;;;;;;5057672;28;20127;-66
2021/11/14 03:11:05;;;;;;;23.58;15.13;;;9.50;85.70;;;;;;5054165;28;20170;-66
2021/11/14 03:13:31;;;;;;;25.77;15.38;;;9.50;85.70;;;;;;5056288;28;20096;-66
2021/11/14 03:16:00;;;;;;;22.15;15.77;;;9.50;85.70;;;;;;5055797;28;20044;-66
2021/11/14 03:18:26;;;;;;;21.55;14.95;;;9.50;85.70;;;;;;5057815;28;20585;-66
2021/11/14 03:20:53;;;;;;;22.55;14.68;;;9.50;85.60;;;;;;5054870;28;20044;-66
2021/11/14 03:23:22;;;;;;;27.73;16.52;;;9.50;85.70;;;;;;5056920;28;20056;-67
2021/11/14 03:25:47;;;;;;;21.60;15.57;;;9.50;85.80;;;;;;5052842;28;20033;-66
2021/11/14 03:28:14;;;;;;;23.90;16.48;;;9.40;85.90;;;;;;5056445;28;20029;-67
2021/11/14 03:30:40;;;;;;;23.00;15.95;;;9.40;86.80;;;;;;5053403;28;20125;-66
2021/11/14 03:33:10;;;;;;;25.80;17.00;;;9.40;86.00;;;;;;5059791;28;20036;-66
2021/11/14 03:35:52;;;;;;;24.90;16.52;;;9.40;86.10;;;;;;5055282;28;20033;-66
2021/11/14 03:38:20;;;;;;;23.88;16.50;;;9.50;86.30;;;;;;5054393;28;20025;-66
2021/11/14 03:40:46;;;;;;;23.70;16.58;;;9.50;86.20;;;;;;5053400;28;20037;-66
2021/11/14 03:43:13;;;;;;;25.60;17.33;;;9.50;86.20;;;;;;5056125;28;20514;-67
2021/11/14 03:45:40;;;;;;;26.70;16.73;;;9.50;86.30;;;;;;5056818;28;22090;-66
2021/11/14 03:48:06;;;;;;;25.50;17.77;;;9.50;86.30;;;;;;5055598;28;20040;-67
2021/11/14 03:50:32;;;;;;;23.35;16.60;;;9.50;86.40;;;;;;5054752;28;20154;-67
2021/11/14 03:52:58;;;;;;;24.90;16.92;;;9.50;86.30;;;;;;5057244;28;20029;-67
2021/11/14 03:55:24;;;;;;;24.42;17.33;;;9.50;86.30;;;;;;5054746;28;20061;-65
2021/11/14 03:57:50;;;;;;;25.73;17.75;;;9.50;86.40;;;;;;5054488;28;20032;-67
2021/11/14 04:00:23;;;;;;;23.58;15.80;;;9.50;87.20;;;;;;5052029;28;20067;-66
2021/11/14 04:02:50;;;;;;;27.85;17.45;;;9.60;86.40;;;;;;5054706;28;20455;-66
2021/11/14 04:05:17;;;;;;;26.20;18.02;;;9.60;86.50;;;;;;5053847;28;20419;-66
2021/11/14 04:07:43;;;;;;;25.30;16.98;;;9.60;86.40;;;;;;5060262;28;20419;-67
2021/11/14 04:10:10;;;;;;;26.52;17.27;;;9.60;86.40;;;;;;5054135;28;20033;-66
2021/11/14 04:12:37;;;;;;;25.52;16.65;;;9.60;86.40;;;;;;5052946;28;20052;-67
2021/11/14 04:15:08;;;;;;;23.25;15.90;;;9.60;86.30;;;;;;5056701;28;20039;-66
2021/11/14 04:17:34;;;;;;;22.48;15.75;;;9.60;86.40;;;;;;5056029;28;20041;-66
2021/11/14 04:20:00;;;;;;;22.55;15.82;;;9.70;86.30;;;;;;5053671;28;20063;-66
2021/11/14 04:22:26;;;;;;;23.02;16.40;;;9.70;86.20;;;;;;5055734;28;20056;-67
2021/11/14 04:24:52;;;;;;;22.23;15.38;;;9.70;86.30;;;;;;5055645;28;20040;-66
2021/11/14 04:27:17;;;;;;;21.98;15.50;;;9.70;86.30;;;;;;5053225;28;20032;-66
2021/11/14 04:29:43;;;;;;;25.35;16.55;;;9.70;86.30;;;;;;5057920;28;20032;-67
2021/11/14 04:32:09;;;;;;;23.42;16.35;;;9.60;86.30;;;;;;5055310;28;20094;-66
2021/11/14 04:34:35;;;;;;;24.55;16.15;;;9.60;86.40;;;;;;5053953;28;20098;-67
2021/11/14 04:37:00;;;;;;;24.80;16.13;;;9.60;86.30;;;;;;5054622;28;20057;-66
2021/11/14 04:39:26;;;;;;;22.42;15.40;;;9.60;86.40;;;;;;5055694;28;20037;-66
2021/11/14 04:41:52;;;;;;;21.58;15.27;;;9.60;86.40;;;;;;5055378;28;20028;-66
2021/11/14 04:44:18;;;;;;;22.58;15.32;;;9.60;86.40;;;;;;5056741;28;20060;-66
2021/11/14 04:46:43;;;;;;;21.35;14.98;;;9.60;86.40;;;;;;5051026;28;20507;-66
2021/11/14 04:49:09;;;;;;;21.77;15.38;;;9.60;86.40;;;;;;5053753;28;20593;-67
2021/11/14 04:51:35;;;;;;;23.67;16.48;;;9.60;86.30;;;;;;5052303;28;20782;-67
2021/11/14 04:54:00;;;;;;;24.17;15.43;;;9.60;86.30;;;;;;5052083;28;20040;-66
2021/11/14 04:56:28;;;;;;;21.02;14.65;;;9.60;86.30;;;;;;5053726;28;20435;-67
2021/11/14 04:58:54;;;;;;;22.02;15.13;;;9.60;86.30;;;;;;5050316;28;20768;-66
2021/11/14 05:01:20;;;;;;;22.40;15.35;;;9.60;86.40;;;;;;5051407;28;20035;-66
2021/11/14 05:03:46;;;;;;;20.67;14.77;;;9.60;86.40;;;;;;5053926;28;20036;-66
2021/11/14 05:06:13;;;;;;;20.38;14.50;;;9.60;86.40;;;;;;5055161;28;20029;-66
2021/11/14 05:08:39;;;;;;;23.42;15.48;;;9.60;86.30;;;;;;5051473;28;20085;-66
2021/11/14 05:11:05;;;;;;;20.70;15.00;;;9.60;86.20;;;;;;5053439;28;20688;-66
2021/11/14 05:13:30;;;;;;;21.60;14.63;;;9.60;86.20;;;;;;5053862;28;20073;-67
2021/11/14 05:15:56;;;;;;;22.77;14.57;;;9.60;86.20;;;;;;5053036;28;20036;-66
2021/11/14 05:18:22;;;;;;;21.23;15.18;;;9.60;86.20;;;;;;5053636;28;20135;-67
2021/11/14 05:20:48;;;;;;;21.45;14.82;;;9.60;86.20;;;;;;5053985;28;20072;-66
2021/11/14 05:23:16;;;;;;;21.95;15.05;;;9.50;86.10;;;;;;5054952;28;20041;-67
2021/11/14 05:25:42;;;;;;;21.50;14.40;;;9.50;86.10;;;;;;5053902;28;20453;-67
2021/11/14 05:28:09;;;;;;;20.90;14.18;;;9.60;86.30;;;;;;5053465;28;20082;-66
2021/11/14 05:30:35;;;;;;;21.38;14.27;;;9.60;86.30;;;;;;5054406;28;20632;-65
2021/11/14 05:33:02;;;;;;;19.88;14.10;;;9.60;86.30;;;;;;5055695;28;20086;-66
2021/11/14 05:35:28;;;;;;;21.92;14.93;;;9.50;86.20;;;;;;5054380;28;20637;-66
2021/11/14 05:37:54;;;;;;;23.42;15.48;;;9.50;86.30;;;;;;5051995;28;20041;-66
2021/11/14 05:40:20;;;;;;;22.75;15.75;;;9.50;86.40;;;;;;5051618;28;20032;-66
2021/11/14 05:42:45;;;;;;;25.52;16.00;;;9.50;86.40;;;;;;5052615;28;20520;-66
2021/11/14 05:45:11;;;;;;;26.52;17.70;;;9.50;86.50;;;;;;5052816;28;20468;-66
2021/11/14 05:47:37;;;;;;;27.35;18.13;;;9.50;86.50;;;;;;5054205;28;20504;-66
2021/11/14 05:50:06;;;;;;;32.85;19.52;;;9.50;86.60;;;;;;5054441;28;20060;-66
2021/11/14 05:52:31;;;;;;;26.05;17.35;;;9.50;86.60;;;;;;5052541;28;20131;-66
2021/11/14 05:54:57;;;;;;;26.55;17.48;;;9.40;86.60;;;;;;5052298;28;20762;-64
2021/11/14 05:57:23;;;;;;;105.05;68.13;;;9.40;86.70;;;;;;5053688;28;20035;-66
2021/11/14 05:59:57;;;;;;;35.75;23.17;;;9.40;86.80;;;;;;5055958;28;20032;-66
2021/11/14 06:07:33;;;;;;;29.15;18.10;;;9.40;86.80;;;;;;5054995;28;20036;-66
2021/11/14 06:10:01;;;;;;;29.52;17.98;;;9.40;86.70;;;;;;5056583;28;20029;-66
2021/11/14 06:12:27;;;;;;;30.90;18.13;;;9.40;86.70;;;;;;5056445;28;20036;-66
2021/11/14 06:14:53;;;;;;;28.45;18.15;;;9.40;86.60;;;;;;5055903;28;20037;-66
2021/11/14 06:17:20;;;;;;;28.17;18.08;;;9.40;86.60;;;;;;5056895;28;20089;-66
2021/11/14 06:19:48;;;;;;;32.85;18.63;;;9.40;86.60;;;;;;5057149;28;20067;-66
2021/11/14 06:22:14;;;;;;;25.85;17.67;;;9.40;86.60;;;;;;5059225;28;20036;-66
2021/11/14 06:24:40;;;;;;;28.92;17.80;;;9.40;86.50;;;;;;5056174;28;20036;-66
2021/11/14 06:27:06;;;;;;;29.20;18.73;;;9.40;86.60;;;;;;5055660;28;20041;-67
2021/11/14 06:29:31;;;;;;;29.90;19.25;;;9.30;86.60;;;;;;5057681;28;20551;-66
2021/11/14 06:31:57;;;;;;;29.27;18.42;;;9.30;86.60;;;;;;5054803;28;20037;-66
2021/11/14 06:34:23;;;;;;;33.30;21.00;;;9.30;86.70;;;;;;5057374;28;20040;-67
2021/11/14 06:36:48;;;;;;;37.75;23.02;;;9.30;86.60;;;;;;5057839;28;20121;-66
2021/11/14 06:39:14;;;;;;;38.83;23.67;;;9.30;86.70;;;;;;5059811;28;20081;-66
2021/11/14 06:41:40;;;;;;;34.53;21.55;;;9.30;86.70;;;;;;5059627;28;20048;-66
2021/11/14 06:44:05;;;;;;;31.50;19.90;;;9.30;86.70;;;;;;5059619;28;20033;-66
2021/11/14 06:46:31;;;;;;;34.65;19.10;;;9.30;86.70;;;;;;5058306;28;20032;-66
2021/11/14 06:48:56;;;;;;;47.25;20.13;;;9.30;86.70;;;;;;5063156;28;20032;-66
2021/11/14 06:51:22;;;;;;;31.15;20.15;;;9.30;86.70;;;;;;5059668;28;20041;-65
2021/11/14 06:53:48;;;;;;;32.10;19.58;;;9.30;86.70;;;;;;5059403;28;20028;-66
2021/11/14 06:56:13;;;;;;;30.27;19.80;;;9.30;86.80;;;;;;5057641;28;20094;-66
2021/11/14 06:58:39;;;;;;;29.55;18.85;;;9.30;86.90;;;;;;5058592;28;20037;-66
2021/11/14 07:01:05;;;;;;;38.10;21.60;;;9.30;86.90;;;;;;5059653;28;20074;-66
2021/11/14 07:03:30;;;;;;;30.92;20.02;;;9.30;86.90;;;;;;5056174;28;20028;-66
2021/11/14 07:05:56;;;;;;;36.42;19.73;;;9.30;86.90;;;;;;5060644;28;20455;-66
2021/11/14 07:08:21;;;;;;;31.40;20.02;;;9.30;86.90;;;;;;5060917;28;20036;-66
2021/11/14 07:10:47;;;;;;;34.53;19.90;;;9.30;87.00;;;;;;5056334;28;20033;-65
2021/11/14 07:13:13;;;;;;;35.13;19.17;;;9.30;87.10;;;;;;5059635;28;20119;-66
2021/11/14 07:15:39;;;;;;;28.77;18.20;;;9.40;87.10;;;;;;5060464;28;20078;-66
2021/11/14 07:18:05;;;;;;;28.73;18.48;;;9.40;87.20;;;;;;5059572;28;20025;-66
2021/11/14 07:20:30;;;;;;;33.90;18.92;;;9.40;87.30;;;;;;5058463;28;20036;-66
2021/11/14 07:22:56;;;;;;;30.48;19.20;;;9.40;87.20;;;;;;5061102;28;20032;-66
2021/11/14 07:25:22;;;;;;;32.55;20.13;;;9.50;87.30;;;;;;5061620;28;20115;-66
2021/11/14 07:27:51;;;;;;;29.67;18.58;;;9.50;87.20;;;;;;5059448;28;20115;-66
2021/11/14 07:30:18;;;;;;;31.15;19.35;;;9.50;87.10;;;;;;5060149;28;20067;-66
2021/11/14 07:32:44;;;;;;;28.10;18.20;;;9.50;87.00;;;;;;5058847;28;20040;-66
2021/11/14 07:35:14;;;;;;;28.50;18.10;;;9.50;86.90;;;;;;5059637;28;20032;-66
2021/11/14 07:37:40;;;;;;;28.77;18.50;;;9.50;86.80;;;;;;5058779;28;20388;-66
2021/11/14 07:40:09;;;;;;;27.33;17.77;;;9.50;86.80;;;;;;5057567;28;20039;-66
2021/11/14 07:42:37;;;;;;;28.88;18.67;;;9.60;86.80;;;;;;5058086;28;20504;-66
2021/11/14 07:45:05;;;;;;;32.85;18.35;;;9.60;86.70;;;;;;5059872;28;20035;-66
2021/11/14 07:47:30;;;;;;;29.40;18.67;;;9.60;86.70;;;;;;5058725;28;20120;-66
2021/11/14 07:49:56;;;;;;;29.85;18.98;;;9.60;86.70;;;;;;5059745;28;20112;-66
2021/11/14 07:52:22;;;;;;;28.73;18.35;;;9.60;86.60;;;;;;5053398;28;20119;-65
2021/11/14 07:54:48;;;;;;;30.80;19.55;;;9.60;86.70;;;;;;5052268;28;20033;-65
2021/11/14 07:57:13;;;;;;;30.60;18.90;;;9.60;86.70;;;;;;5059360;28;20043;-65
2021/11/14 07:59:39;;;;;;;31.15;19.23;;;9.60;86.80;;;;;;5055601;28;20037;-65
2021/11/14 08:02:05;;;;;;;30.33;18.83;;;9.60;86.80;;;;;;5055816;28;20039;-65
2021/11/14 08:04:31;;;;;;;30.50;19.02;;;9.60;86.90;;;;;;5058075;28;20037;-65
2021/11/14 08:06:58;;;;;;;29.45;18.92;;;9.60;86.90;;;;;;5054815;28;20029;-65
2021/11/14 08:09:24;;;;;;;31.92;19.90;;;9.50;87.00;;;;;;5057401;28;20510;-66
2021/11/14 08:11:50;;;;;;;29.30;18.92;;;9.50;87.00;;;;;;5055655;28;20040;-66
2021/11/14 08:14:17;;;;;;;31.30;19.80;;;9.50;87.10;;;;;;5057800;28;20527;-66
2021/11/14 08:16:42;;;;;;;28.88;18.38;;;9.50;87.10;;;;;;5058575;28;20182;-66
2021/11/14 08:19:08;;;;;;;29.15;18.88;;;9.50;87.10;;;;;;5056504;28;20864;-66
2021/11/14 08:21:34;;;;;;;29.42;19.15;;;9.50;87.20;;;;;;5054187;28;20154;-66
2021/11/14 08:24:00;;;;;;;27.92;18.15;;;9.50;87.30;;;;;;5056794;28;20063;-66
2021/11/14 08:26:26;;;;;;;29.98;19.45;;;9.60;87.30;;;;;;5056117;28;20033;-67
2021/11/14 08:28:51;;;;;;;27.33;17.75;;;9.50;88.10;;;;;;5055925;28;20029;-67
2021/11/14 08:31:20;;;;;;;28.23;18.95;;;9.60;87.30;;;;;;5057311;28;20033;-66
2021/11/14 08:33:49;;;;;;;30.33;18.55;;;9.50;87.40;;;;;;5055601;28;20040;-66
2021/11/14 08:36:15;;;;;;;28.63;18.80;;;9.60;87.60;;;;;;5055034;28;20068;-66
2021/11/14 08:38:41;;;;;;;27.35;18.48;;;9.60;87.60;;;;;;5056870;28;20086;-66
2021/11/14 08:41:07;;;;;;;26.10;17.63;;;9.60;87.70;;;;;;5056204;28;20031;-66
2021/11/14 08:43:33;;;;;;;27.63;18.38;;;9.60;87.60;;;;;;5055333;28;20032;-67
2021/11/14 08:46:00;;;;;;;28.23;18.85;;;9.60;87.80;;;;;;5051573;28;20031;-65
2021/11/14 08:48:26;;;;;;;27.40;18.33;;;9.70;87.80;;;;;;5057650;28;20044;-66
2021/11/14 08:50:53;;;;;;;27.90;18.35;;;9.70;87.80;;;;;;5057905;28;20025;-66
2021/11/14 08:53:19;;;;;;;25.10;16.88;;;9.70;87.80;;;;;;5058126;28;20048;-66
2021/11/14 08:55:45;;;;;;;25.40;17.60;;;9.70;87.80;;;;;;5055808;28;20120;-65
2021/11/14 08:58:11;;;;;;;30.42;19.45;;;9.80;87.80;;;;;;5054962;28;20496;-65
2021/11/14 09:00:36;;;;;;;28.67;18.85;;;9.80;87.70;;;;;;5055818;28;20106;-66
2021/11/14 09:03:02;;;;;;;27.13;18.45;;;9.80;87.60;;;;;;5057728;28;21788;-65
2021/11/14 09:05:30;;;;;;;27.83;18.25;;;9.80;87.70;;;;;;5057019;28;20400;-65
2021/11/14 09:07:57;;;;;;;29.90;18.83;;;9.80;87.80;;;;;;5056189;28;20033;-65
2021/11/14 09:10:24;;;;;;;28.48;19.30;;;9.80;87.80;;;;;;5059980;28;20174;-66
2021/11/14 09:12:50;;;;;;;30.58;18.90;;;9.80;88.00;;;;;;5053824;28;20036;-65
2021/11/14 09:15:17;;;;;;;28.35;18.73;;;9.90;88.00;;;;;;5056594;28;20057;-66
2021/11/14 09:17:44;;;;;;;32.00;19.42;;;9.90;88.10;;;;;;5056087;28;20503;-65
2021/11/14 09:20:10;;;;;;;28.77;18.95;;;9.90;88.90;;;;;;5055655;28;20090;-66
2021/11/14 09:22:37;;;;;;;30.10;19.17;;;9.90;88.00;;;;;;5056051;28;20028;-65
2021/11/14 09:25:06;;;;;;;30.10;18.67;;;10.00;88.10;;;;;;5056182;28;20057;-65
2021/11/14 09:27:32;;;;;;;28.92;18.10;;;10.00;88.10;;;;;;5055482;28;20041;-65
2021/11/14 09:29:58;;;;;;;30.80;19.50;;;10.00;88.00;;;;;;5055729;28;20074;-66
2021/11/14 09:32:23;;;;;;;32.00;19.63;;;10.00;87.90;;;;;;5055295;28;20032;-66
2021/11/14 09:34:49;;;;;;;31.05;19.95;;;10.10;87.90;;;;;;5052922;28;20159;-62
2021/11/14 09:37:15;;;;;;;29.73;18.77;;;10.10;87.80;;;;;;5054435;28;20071;-66
2021/11/14 09:39:41;;;;;;;25.45;17.27;;;10.20;87.80;;;;;;5056949;28;20098;-66
2021/11/14 09:42:07;;;;;;;28.90;17.98;;;10.10;87.60;;;;;;5053083;28;20041;-65
2021/11/14 09:44:33;;;;;;;26.75;17.20;;;10.20;87.60;;;;;;5054187;28;20032;-65
2021/11/14 09:47:01;;;;;;;27.83;18.00;;;10.20;87.70;;;;;;5055255;28;20024;-65
2021/11/14 09:49:30;;;;;;;28.70;18.15;;;10.20;87.50;;;;;;5052122;28;20089;-65
2021/11/14 09:51:57;;;;;;;27.35;16.98;;;10.20;87.50;;;;;;5056585;28;20106;-65
2021/11/14 09:54:25;;;;;;;26.40;16.95;;;10.20;87.60;;;;;;5054699;28;20037;-65
2021/11/14 09:56:52;;;;;;;27.73;17.75;;;10.20;87.60;;;;;;5054486;28;20029;-65
2021/11/14 09:59:18;;;;;;;28.60;17.88;;;10.20;87.60;;;;;;5054934;28;20033;-66
2021/11/14 10:01:44;;;;;;;27.20;17.42;;;10.20;87.60;;;;;;5058259;28;20107;-66
2021/11/14 10:04:13;;;;;;;32.40;19.02;;;10.30;87.60;;;;;;5055160;28;20036;-65
2021/11/14 10:06:39;;;;;;;37.67;20.58;;;10.30;87.40;;;;;;5057146;28;20048;-65
2021/11/14 10:09:06;;;;;;;35.83;20.63;;;10.30;87.30;;;;;;5056568;28;20495;-66
2021/11/14 10:11:39;;;;;;;33.65;19.60;;;10.30;87.20;;;;;;5054905;28;20030;-65
2021/11/14 10:14:06;;;;;;;31.73;18.17;;;10.30;87.10;;;;;;5055970;28;20032;-66
2021/11/14 10:16:33;;;;;;;32.33;19.10;;;10.30;86.90;;;;;;5056656;28;21340;-65
2021/11/14 10:19:09;;;;;;;30.77;17.05;;;10.30;86.90;;;;;;5055013;28;20033;-64
2021/11/14 10:21:35;;;;;;;34.60;17.60;;;10.30;86.90;;;;;;5060745;28;20031;-65
2021/11/14 10:24:07;;;;;;;35.13;18.67;;;10.30;86.90;;;;;;5058756;28;20064;-65
2021/11/14 10:26:33;;;;;;;32.58;17.73;;;10.20;86.90;;;;;;5056568;28;20036;-64
2021/11/14 10:29:08;;;;;;;35.30;18.05;;;10.20;86.90;;;;;;5057534;28;20036;-64
2021/11/14 10:31:34;;;;;;;;;;;10.20;87.10;;;;;;5058358;28;20041;-65
2021/11/14 10:34:00;;;;;;;31.55;17.15;;;10.20;87.30;;;;;;5056777;28;20358;-64
2021/11/14 10:36:28;;;;;;;28.83;16.77;;;10.20;86.90;;;;;;5059055;28;20051;-65
2021/11/14 10:39:13;;;;;;;31.95;18.00;;;10.10;87.00;;;;;;5060089;28;20399;-64
2021/11/14 10:41:47;;;;;;;30.98;17.38;;;10.10;87.30;;;;;;5055943;28;20029;-65
2021/11/14 10:44:15;;;;;;;32.03;17.77;;;10.10;87.30;;;;;;5056818;28;20519;-66
2021/11/14 10:46:41;;;;;;;31.70;17.13;;;10.10;87.30;;;;;;5060891;28;20032;-65
2021/11/14 10:49:08;;;;;;;30.45;16.45;;;10.10;87.30;;;;;;5061715;28;20048;-65
2021/11/14 10:51:34;;;;;;;29.73;15.70;;;10.10;87.40;;;;;;5060949;28;20056;-66
2021/11/14 10:54:01;;;;;;;28.55;14.75;;;10.10;87.40;;;;;;5061963;28;20042;-67
2021/11/14 10:56:26;;;;;;;28.83;15.70;;;10.10;87.40;;;;;;5058141;28;20535;-65
2021/11/14 10:58:54;;;;;;;26.35;15.45;;;10.10;87.40;;;;;;5059426;28;20044;-68
2021/11/14 11:01:19;;;;;;;28.55;15.30;;;10.10;88.40;;;;;;5060393;28;20021;-67
2021/11/14 11:03:48;;;;;;;28.42;14.93;;;10.10;87.60;;;;;;5058946;28;20029;-65
2021/11/14 11:06:29;;;;;;;25.55;15.02;;;10.10;87.80;;;;;;5057729;28;20035;-65
2021/11/14 11:09:04;;;;;;;25.45;14.77;;;10.10;87.80;;;;;;5059887;28;20028;-65
2021/11/14 11:11:31;;;;;;;27.10;15.23;;;10.10;87.80;;;;;;5059501;28;20032;-68
2021/11/14 11:13:57;;;;;;;29.08;15.57;;;10.10;87.60;;;;;;5058850;28;20036;-68
2021/11/14 11:16:27;;;;;;;26.60;14.68;;;10.10;87.60;;;;;;5059645;28;20055;-65
2021/11/14 11:19:08;;;;;;;27.88;14.88;;;10.10;87.60;;;;;;5057962;28;20058;-65
2021/11/14 11:21:44;;;;;;;26.17;14.27;;;10.10;87.80;;;;;;5058828;28;20041;-65
2021/11/14 11:24:12;;;;;;;25.60;14.25;;;10.10;87.60;;;;;;5060275;28;20111;-65
2021/11/14 11:26:40;;;;;;;29.77;14.75;;;10.10;87.50;;;;;;5059348;28;20029;-67
2021/11/14 11:29:19;;;;;;;29.60;15.13;;;10.10;87.50;;;;;;5059421;28;20174;-67
2021/11/14 11:31:46;;;;;;;30.60;16.52;;;10.00;87.80;;;;;;5059045;28;20075;-66
2021/11/14 11:34:16;;;;;;;28.23;16.05;;;10.10;87.70;;;;;;5059955;28;20570;-66
2021/11/14 11:36:42;;;;;;;28.17;15.73;;;10.00;87.70;;;;;;5058994;28;20086;-66
2021/11/14 11:39:07;;;;;;;26.63;16.38;;;10.00;87.80;;;;;;5059658;28;20037;-66
2021/11/14 11:41:35;;;;;;;27.20;15.98;;;10.10;87.90;;;;;;5059477;28;20060;-66
2021/11/14 11:44:01;;;;;;;26.95;16.23;;;10.00;87.80;;;;;;5060327;28;20037;-66
2021/11/14 11:46:34;;;;;;;28.27;15.95;;;10.00;87.80;;;;;;5058495;28;20478;-66
2021/11/14 11:49:03;;;;;;;27.92;15.80;;;10.00;88.00;;;;;;5060518;28;20036;-66
2021/11/14 11:51:36;;;;;;;26.00;15.15;;;10.10;88.00;;;;;;5058234;28;20036;-65
2021/11/14 11:54:09;;;;;;;26.98;15.48;;;10.10;88.00;;;;;;5058359;28;20374;-65
2021/11/14 11:56:55;;;;;;;29.77;17.48;;;10.10;87.90;;;;;;5060775;28;20093;-65
2021/11/14 11:59:35;;;;;;;25.67;15.27;;;10.10;87.80;;;;;;5056499;28;20032;-66
2021/11/14 12:02:04;;;;;;;24.63;15.48;;;10.10;87.70;;;;;;5060569;28;20029;-65
2021/11/14 12:04:49;;;;;;;26.92;16.27;;;10.10;87.60;;;;;;5059911;28;20072;-65
2021/11/14 12:07:29;;;;;;;25.25;14.82;;;10.10;87.70;;;;;;5059314;28;20078;-66
2021/11/14 12:10:01;;;;;;;28.30;16.50;;;10.10;87.70;;;;;;5059297;28;20398;-65
2021/11/14 12:12:32;;;;;;;26.10;15.98;;;10.10;87.50;;;;;;5057162;28;20051;-65
2021/11/14 12:15:19;;;;;;;23.55;15.23;;;10.10;87.60;;;;;;5058378;28;20036;-65
2021/11/14 12:17:48;;;;;;;22.17;15.02;;;10.10;88.50;;;;;;5056876;28;20179;-66
2021/11/14 12:20:17;;;;;;;24.95;14.88;;;10.10;87.60;;;;;;5060222;28;20530;-65
2021/11/14 12:22:45;;;;;;;24.50;15.50;;;10.10;87.50;;;;;;5056282;28;20028;-66
2021/11/14 12:25:28;;;;;;;22.80;15.07;;;10.10;87.50;;;;;;5059953;28;20033;-65
2021/11/14 12:28:09;;;;;;;23.95;15.27;;;10.10;87.60;;;;;;5057383;28;20115;-65
2021/11/14 12:30:40;;;;;;;24.58;15.70;;;10.10;88.40;;;;;;5059654;28;20128;-65
2021/11/14 12:33:07;;;;;;;29.55;17.95;;;10.10;87.50;;;;;;5059117;28;20040;-65
2021/11/14 12:35:42;;;;;;;27.90;17.88;;;10.10;87.40;;;;;;5059262;28;20041;-64
2021/11/14 12:38:12;;;;;;;29.40;18.05;;;10.10;87.40;;;;;;5064209;28;20522;-65
2021/11/14 12:40:47;;;;;;;24.10;15.75;;;10.10;87.40;;;;;;5058637;28;20087;-65
2021/11/14 12:43:17;;;;;;;;;;;10.20;87.60;;;;;;5059179;28;20085;-65